createdAt,value
2023-03-06T00:00:43.216Z,3.86
2023-03-06T00:03:09.824Z,3.89
2023-03-06T00:05:36.456Z,3.88
2023-03-06T00:08:03.346Z,3.89
2023-03-06T00:10:31.098Z,3.91
2023-03-06T00:12:59.556Z,3.89
2023-03-06T00:15:28.212Z,3.87
2023-03-06T00:17:55.905Z,3.86
2023-03-06T00:20:23.729Z,3.85
2023-03-06T00:22:50.828Z,3.81
2023-03-06T00:25:18.767Z,3.83
2023-03-06T00:27:45.894Z,3.80
2023-03-06T00:30:14.840Z,3.83
2023-03-06T00:32:43.584Z,3.81
2023-03-06T00:35:11.321Z,3.82
2023-03-06T00:37:38.487Z,3.84
2023-03-06T00:40:05.693Z,3.86
2023-03-06T00:42:32.330Z,3.82
2023-03-06T00:44:58.890Z,3.86
2023-03-06T00:47:25.671Z,3.83
2023-03-06T00:49:53.586Z,3.80
2023-03-06T00:52:20.147Z,3.84
2023-03-06T00:54:46.692Z,3.80
2023-03-06T00:57:13.289Z,3.78
2023-03-06T00:59:39.999Z,3.77
2023-03-06T01:02:06.683Z,3.30
2023-03-06T01:04:33.554Z,3.69
2023-03-06T01:07:01.483Z,3.72
2023-03-06T01:09:29.101Z,3.73
2023-03-06T01:11:55.817Z,3.74
2023-03-06T01:14:22.542Z,3.73
2023-03-06T01:16:49.373Z,3.73
2023-03-06T01:19:16.192Z,3.80
2023-03-06T01:21:42.778Z,2.81
2023-03-06T01:24:10.676Z,3.48
2023-03-06T01:26:37.293Z,3.64
2023-03-06T01:29:03.909Z,3.69
2023-03-06T01:31:30.478Z,3.73
2023-03-06T01:33:57.053Z,3.69
2023-03-06T01:36:23.668Z,3.71
2023-03-06T01:38:50.232Z,3.71
2023-03-06T01:41:18.362Z,3.68
2023-03-06T01:43:46.365Z,3.69
2023-03-06T01:46:32.171Z,3.70
2023-03-06T01:49:02.780Z,3.72
2023-03-06T01:51:33.244Z,2.83
2023-03-06T01:54:02.478Z,3.31
2023-03-06T01:56:30.649Z,3.13
2023-03-06T01:58:58.463Z,3.58
2023-03-06T02:01:25.859Z,3.63
2023-03-06T02:03:53.058Z,3.70
2023-03-06T02:06:21.772Z,3.71
2023-03-06T02:08:49.881Z,3.62
2023-03-06T02:11:18.898Z,3.61
2023-03-06T02:13:48.092Z,3.60
2023-03-06T02:16:17.462Z,3.63
2023-03-06T02:18:45.803Z,3.64
2023-03-06T02:21:20.272Z,3.62
2023-03-06T02:23:56.563Z,3.63
2023-03-06T02:26:26.701Z,3.60
2023-03-06T02:28:53.321Z,3.65
2023-03-06T02:31:22.907Z,3.58
2023-03-06T02:34:02.518Z,3.59
2023-03-06T02:36:30.711Z,3.57
2023-03-06T02:38:58.361Z,3.58
2023-03-06T02:41:26.371Z,3.54
2023-03-06T02:43:53.532Z,3.56
2023-03-06T02:46:20.453Z,3.56
2023-03-06T02:48:47.105Z,3.54
2023-03-06T02:51:13.730Z,3.53
2023-03-06T02:53:40.404Z,3.56
2023-03-06T02:56:07.993Z,3.53
2023-03-06T02:58:36.322Z,3.54
2023-03-06T03:01:02.951Z,2.29
2023-03-06T03:03:29.591Z,3.33
2023-03-06T03:05:56.154Z,3.46
2023-03-06T03:08:22.757Z,3.48
2023-03-06T03:10:49.339Z,3.52
2023-03-06T03:13:15.987Z,3.49
2023-03-06T03:15:44.316Z,3.48
2023-03-06T03:18:11.664Z,3.47
2023-03-06T03:20:41.692Z,3.47
2023-03-06T03:23:08.283Z,3.47
2023-03-06T03:25:34.816Z,3.49
2023-03-06T03:28:01.361Z,3.47
2023-03-06T03:30:27.904Z,3.45
2023-03-06T03:32:55.837Z,3.42
2023-03-06T03:35:22.511Z,3.43
2023-03-06T03:37:49.091Z,3.42
2023-03-06T03:40:15.666Z,3.45
2023-03-06T03:42:42.276Z,3.45
2023-03-06T03:45:09.599Z,3.39
2023-03-06T03:47:36.270Z,3.41
2023-03-06T03:50:04.889Z,3.46
2023-03-06T03:52:31.451Z,3.41
2023-03-06T03:54:58.291Z,3.37
2023-03-06T03:57:24.872Z,3.37
2023-03-06T03:59:51.440Z,3.39
2023-03-06T04:02:18.123Z,3.36
2023-03-06T04:04:44.750Z,3.36
2023-03-06T04:07:13.296Z,3.36
2023-03-06T04:09:40.075Z,3.33
2023-03-06T04:12:07.568Z,3.34
2023-03-06T04:14:34.118Z,3.35
2023-03-06T04:17:00.654Z,3.33
2023-03-06T04:19:27.234Z,3.32
2023-03-06T04:21:53.803Z,3.33
2023-03-06T04:24:21.761Z,3.32
2023-03-06T04:26:48.338Z,3.30
2023-03-06T04:29:14.926Z,3.28
2023-03-06T04:31:41.535Z,3.27
2023-03-06T04:34:08.142Z,3.28
2023-03-06T04:36:35.216Z,3.27
2023-03-06T04:39:02.188Z,3.26
2023-03-06T04:41:30.670Z,3.27
2023-03-06T04:43:57.420Z,3.26
2023-03-06T04:46:23.979Z,3.23
2023-03-06T04:48:50.543Z,3.27
2023-03-06T04:51:17.159Z,3.25
2023-03-06T04:53:43.775Z,3.24
2023-03-06T04:56:10.472Z,3.26
2023-03-06T04:58:38.452Z,2.13
2023-03-06T05:01:05.375Z,3.06
2023-03-06T05:03:32.278Z,3.18
2023-03-06T05:05:58.869Z,3.27
2023-03-06T05:08:25.692Z,3.26
2023-03-06T05:10:57.049Z,3.24
2023-03-06T05:13:24.221Z,3.26
2023-03-06T05:15:52.356Z,3.21
2023-03-06T05:18:19.931Z,3.24
2023-03-06T05:20:46.496Z,3.29
2023-03-06T05:23:13.353Z,3.26
2023-03-06T05:25:40.450Z,3.17
2023-03-06T05:28:07.709Z,3.15
2023-03-06T05:30:35.004Z,3.15
2023-03-06T05:33:03.013Z,3.16
2023-03-06T05:35:29.692Z,3.14
2023-03-06T05:37:56.572Z,3.14
2023-03-06T05:40:23.224Z,3.15
2023-03-06T05:42:49.769Z,3.14
2023-03-06T05:45:16.479Z,3.14
2023-03-06T05:47:43.162Z,3.14
2023-03-06T05:50:13.877Z,3.17
2023-03-06T05:52:40.546Z,3.20
2023-03-06T05:55:09.906Z,3.13
2023-03-06T05:57:36.476Z,3.12
2023-03-06T06:00:03.911Z,3.14
2023-03-06T06:02:30.538Z,3.23
2023-03-06T06:04:57.437Z,3.22
2023-03-06T06:07:25.377Z,3.19
2023-03-06T06:09:53.936Z,3.12
2023-03-06T06:12:20.653Z,3.09
2023-03-06T06:14:47.248Z,3.12
2023-03-06T06:17:13.891Z,3.14
2023-03-06T06:19:40.551Z,3.19
2023-03-06T06:22:07.113Z,3.17
2023-03-06T06:24:35.060Z,3.08
2023-03-06T06:27:03.973Z,3.14
2023-03-06T06:29:31.242Z,3.16
2023-03-06T06:31:58.234Z,3.15
2023-03-06T06:34:25.648Z,3.19
2023-03-06T06:36:53.926Z,3.15
2023-03-06T06:39:22.242Z,3.06
2023-03-06T06:42:09.669Z,1.47
2023-03-06T06:44:39.385Z,1.08
2023-03-06T06:47:24.646Z,2.23
2023-03-06T06:49:52.982Z,2.81
2023-03-06T06:52:20.058Z,2.96
2023-03-06T06:54:46.816Z,2.99
2023-03-06T06:57:15.570Z,2.98
2023-03-06T06:59:42.600Z,2.99
2023-03-06T07:02:11.366Z,3.03
2023-03-06T07:04:40.960Z,3.05
2023-03-06T07:07:10.954Z,3.02
2023-03-06T07:09:39.748Z,3.05
2023-03-06T07:12:07.379Z,3.04
2023-03-06T07:14:36.225Z,3.07
2023-03-06T07:17:02.833Z,3.08
2023-03-06T07:19:29.440Z,3.00
2023-03-06T07:21:56.012Z,2.99
2023-03-06T07:24:22.588Z,2.90
2023-03-06T07:26:49.324Z,2.98
2023-03-06T07:29:16.054Z,3.06
2023-03-06T07:31:44.285Z,3.00
2023-03-06T07:34:13.083Z,3.00
2023-03-06T07:36:40.413Z,3.06
2023-03-06T07:39:07.399Z,3.01
2023-03-06T07:41:34.145Z,3.08
2023-03-06T07:44:00.985Z,3.04
2023-03-06T07:46:27.627Z,3.06
2023-03-06T07:48:55.821Z,3.03
2023-03-06T07:51:22.923Z,3.00
2023-03-06T07:53:50.197Z,2.98
2023-03-06T07:56:16.796Z,3.04
2023-03-06T07:58:45.671Z,3.06
2023-03-06T08:01:14.125Z,2.98
2023-03-06T08:03:40.830Z,3.00
2023-03-06T08:06:11.046Z,3.00
2023-03-06T08:08:42.063Z,3.04
2023-03-06T08:11:09.620Z,2.95
2023-03-06T08:13:36.438Z,2.91
2023-03-06T08:16:03.279Z,2.95
2023-03-06T08:18:30.070Z,2.88
2023-03-06T08:21:04.301Z,2.97
2023-03-06T08:23:32.401Z,2.74
2023-03-06T08:26:00.784Z,2.91
2023-03-06T08:28:28.552Z,2.66
2023-03-06T08:30:55.418Z,2.63
2023-03-06T08:33:22.551Z,2.18
2023-03-06T08:35:49.218Z,1.92
2023-03-06T08:38:15.826Z,2.28
2023-03-06T08:40:43.753Z,2.73
2023-03-06T08:43:13.077Z,2.87
2023-03-06T08:45:40.757Z,2.93
2023-03-06T08:48:07.396Z,2.90
2023-03-06T08:50:34.044Z,2.91
2023-03-06T08:53:00.780Z,2.96
2023-03-06T08:55:28.168Z,2.97
2023-03-06T08:57:56.695Z,2.63
2023-03-06T09:00:23.425Z,2.72
2023-03-06T09:02:50.162Z,2.86
2023-03-06T09:05:17.011Z,2.92
2023-03-06T09:07:43.646Z,2.91
2023-03-06T09:10:14.111Z,2.95
2023-03-06T09:12:49.834Z,2.90
2023-03-06T09:15:19.691Z,2.58
2023-03-06T09:17:47.316Z,2.43
2023-03-06T09:20:15.103Z,2.77
2023-03-06T09:22:45.625Z,2.87
2023-03-06T09:25:23.186Z,2.87
2023-03-06T09:28:01.793Z,2.76
2023-03-06T09:30:33.257Z,2.80
2023-03-06T09:32:59.826Z,2.94
2023-03-06T09:35:26.416Z,2.92
2023-03-06T09:37:53.185Z,2.82
2023-03-06T09:40:25.547Z,2.84
2023-03-06T09:42:52.508Z,2.92
2023-03-06T09:45:20.509Z,2.92
2023-03-06T09:47:59.687Z,2.92
2023-03-06T09:50:37.698Z,2.90
2023-03-06T09:53:18.653Z,2.92
2023-03-06T09:55:50.173Z,2.93
2023-03-06T09:58:21.690Z,2.96
2023-03-06T10:00:58.827Z,2.92
2023-03-06T10:03:30.999Z,2.95
2023-03-06T10:06:02.887Z,2.98
2023-03-06T10:08:42.082Z,2.85
2023-03-06T10:11:10.611Z,2.84
2023-03-06T10:13:40.966Z,2.90
2023-03-06T10:16:19.825Z,2.96
2023-03-06T10:18:47.815Z,2.97
2023-03-06T10:21:33.371Z,2.93
2023-03-06T10:24:09.403Z,2.99
2023-03-06T10:26:39.973Z,2.96
2023-03-06T10:29:27.086Z,2.98
2023-03-06T10:32:01.722Z,2.97
2023-03-06T10:34:35.242Z,3.00
2023-03-06T10:37:11.821Z,2.99
2023-03-06T10:39:39.600Z,3.00
2023-03-06T10:42:09.404Z,3.06
2023-03-06T10:44:36.028Z,3.00
2023-03-06T10:47:27.554Z,2.97
2023-03-06T10:50:01.328Z,2.99
2023-03-06T10:52:30.530Z,3.31
2023-03-06T10:55:23.732Z,3.06
2023-03-06T10:57:50.599Z,3.02
2023-03-06T11:00:27.470Z,3.06
2023-03-06T11:03:19.812Z,3.17
2023-03-06T11:06:06.131Z,3.06
2023-03-06T11:08:33.534Z,2.99
2023-03-06T11:11:02.265Z,2.98
2023-03-06T11:13:30.660Z,2.97
2023-03-06T11:16:01.712Z,3.00
2023-03-06T11:18:35.569Z,3.00
2023-03-06T11:21:07.342Z,2.99
2023-03-06T11:23:41.047Z,3.03
2023-03-06T11:26:30.194Z,3.02
2023-03-06T11:29:06.749Z,3.03
2023-03-06T11:31:37.565Z,3.03
2023-03-06T11:34:09.306Z,3.02
2023-03-06T11:36:43.921Z,3.06
2023-03-06T11:39:24.629Z,3.05
2023-03-06T11:41:59.405Z,3.06
2023-03-06T11:44:34.773Z,3.07
2023-03-06T11:47:09.658Z,3.09
2023-03-06T11:49:41.694Z,3.00
2023-03-06T11:52:19.703Z,3.04
2023-03-06T11:54:54.187Z,3.07
2023-03-06T11:57:24.630Z,2.94
2023-03-06T12:00:10.328Z,2.86
2023-03-06T12:02:48.505Z,2.76
2023-03-06T12:05:38.998Z,2.99
2023-03-06T12:08:26.898Z,2.81
2023-03-06T12:11:01.227Z,2.81
2023-03-06T12:16:35.900Z,3.01
2023-03-06T12:19:12.858Z,2.95
2023-03-06T12:21:48.875Z,2.96
2023-03-06T12:24:36.185Z,2.66
2023-03-06T12:27:17.329Z,3.01
2023-03-06T12:30:02.028Z,2.84
2023-03-06T12:32:40.702Z,2.90
2023-03-06T12:35:22.328Z,3.00
2023-03-06T12:38:01.412Z,2.95
2023-03-06T12:40:54.289Z,3.02
2023-03-06T12:43:44.611Z,2.98
2023-03-06T12:46:15.268Z,3.04
2023-03-06T12:48:45.772Z,2.81
2023-03-06T12:51:16.865Z,2.75
2023-03-06T12:53:45.285Z,2.73
2023-03-06T12:56:15.506Z,2.93
2023-03-06T12:58:53.096Z,3.05
2023-03-06T13:01:50.871Z,3.09
2023-03-06T13:04:45.575Z,3.07
2023-03-06T13:07:41.342Z,3.08
2023-03-06T13:10:20.033Z,2.95
2023-03-06T13:12:55.967Z,2.95
2023-03-06T13:15:35.518Z,2.79
2023-03-06T13:18:22.864Z,2.97
2023-03-06T13:20:50.666Z,3.05
2023-03-06T13:23:52.104Z,3.00
2023-03-06T13:26:56.951Z,2.98
2023-03-06T13:29:51.726Z,3.08
2023-03-06T13:32:28.268Z,3.13
2023-03-06T13:34:55.013Z,3.14
2023-03-06T13:37:52.522Z,3.10
2023-03-06T13:40:26.777Z,3.13
2023-03-06T13:43:18.816Z,3.00
2023-03-06T13:45:48.470Z,2.99
2023-03-06T13:48:43.145Z,3.08
2023-03-06T13:51:21.130Z,3.14
2023-03-06T13:54:19.581Z,3.09
2023-03-06T13:57:16.390Z,3.20
2023-03-06T14:00:15.795Z,3.20
2023-03-06T14:03:19.790Z,3.08
2023-03-06T14:05:48.643Z,3.13
2023-03-06T14:08:18.664Z,3.15
2023-03-06T14:10:46.041Z,3.19
2023-03-06T14:13:19.734Z,3.12
2023-03-06T14:15:48.888Z,3.08
2023-03-06T14:18:23.963Z,3.09
2023-03-06T14:20:56.273Z,3.18
2023-03-06T14:23:29.268Z,3.39
2023-03-06T14:26:03.180Z,3.17
2023-03-06T14:28:31.716Z,3.11
2023-03-06T14:31:00.738Z,3.21
2023-03-06T14:33:37.052Z,3.20
2023-03-06T14:36:09.500Z,3.21
2023-03-06T14:38:42.246Z,3.10
2023-03-06T14:41:11.392Z,3.16
2023-03-06T14:43:39.593Z,3.14
2023-03-06T14:46:07.024Z,3.19
2023-03-06T14:48:41.785Z,3.14
2023-03-06T14:51:15.799Z,3.26
2023-03-06T14:53:44.998Z,3.30
2023-03-06T14:56:17.232Z,3.31
2023-03-06T14:58:51.578Z,3.28
2023-03-06T15:01:26.226Z,3.27
2023-03-06T15:03:58.380Z,3.23
2023-03-06T15:06:29.985Z,3.25
2023-03-06T15:09:00.855Z,3.29
2023-03-06T15:11:47.469Z,3.33
2023-03-06T15:14:19.006Z,3.28
2023-03-06T15:16:45.827Z,3.28
2023-03-06T15:19:18.914Z,3.24
2023-03-06T15:21:48.387Z,3.23
2023-03-06T15:24:33.090Z,3.31
2023-03-06T15:27:02.274Z,3.25
2023-03-06T15:29:29.140Z,3.18
2023-03-06T15:32:14.124Z,3.36
2023-03-06T15:34:43.345Z,3.33
2023-03-06T15:37:25.726Z,3.11
2023-03-06T15:40:03.930Z,3.19
2023-03-06T15:42:34.333Z,3.28
2023-03-06T15:45:13.035Z,3.16
2023-03-06T15:47:39.681Z,3.33
2023-03-06T15:50:14.453Z,3.40
2023-03-06T15:52:41.168Z,3.28
2023-03-06T15:55:08.858Z,3.40
2023-03-06T15:57:35.602Z,3.31
2023-03-06T16:00:02.587Z,3.38
2023-03-06T16:02:29.286Z,3.33
2023-03-06T16:04:56.132Z,3.31
2023-03-06T16:07:24.128Z,3.41
2023-03-06T16:09:50.812Z,3.28
2023-03-06T16:12:19.506Z,3.27
2023-03-06T16:14:50.251Z,3.35
2023-03-06T16:17:19.317Z,3.37
2023-03-06T16:19:45.986Z,3.32
2023-03-06T16:22:12.828Z,3.25
2023-03-06T16:24:41.996Z,3.41
2023-03-06T16:27:16.535Z,3.07
2023-03-06T16:29:43.202Z,3.14
2023-03-06T16:32:10.551Z,3.35
2023-03-06T16:34:37.251Z,3.06
2023-03-06T16:37:04.193Z,3.17
2023-03-06T16:39:30.878Z,3.06
2023-03-06T16:41:58.830Z,3.26
2023-03-06T16:44:25.485Z,3.24
2023-03-06T16:46:52.106Z,3.24
2023-03-06T16:49:21.126Z,2.97
2023-03-06T16:51:48.203Z,3.19
2023-03-06T16:54:15.647Z,3.24
2023-03-06T16:56:43.124Z,3.26
2023-03-06T16:59:11.476Z,3.05
2023-03-06T17:01:42.634Z,3.12
2023-03-06T17:04:09.815Z,3.09
2023-03-06T17:06:36.529Z,3.32
2023-03-06T17:09:04.017Z,2.98
2023-03-06T17:11:30.662Z,3.22
2023-03-06T17:13:57.289Z,2.65
2023-03-06T17:16:25.395Z,3.08
2023-03-06T17:18:52.430Z,3.08
2023-03-06T17:21:19.337Z,3.01
2023-03-06T17:23:46.357Z,3.06
2023-03-06T17:26:15.438Z,3.13
2023-03-06T17:28:42.325Z,3.21
2023-03-06T17:31:14.195Z,3.31
2023-03-06T17:33:42.778Z,3.33
2023-03-06T17:36:10.983Z,3.27
2023-03-06T17:38:37.721Z,3.35
2023-03-06T17:41:05.942Z,3.37
2023-03-06T17:43:33.316Z,3.36
2023-03-06T17:46:03.151Z,3.37
2023-03-06T17:48:30.153Z,3.41
2023-03-06T17:50:58.684Z,3.45
2023-03-06T17:53:25.610Z,3.45
2023-03-06T17:55:52.382Z,3.41
2023-03-06T17:58:19.140Z,3.43
2023-03-06T18:00:46.619Z,3.40
2023-03-06T18:03:13.520Z,3.42
2023-03-06T18:05:40.668Z,3.43
2023-03-06T18:08:10.251Z,3.45
2023-03-06T18:10:40.084Z,3.42
2023-03-06T18:13:07.225Z,2.64
2023-03-06T18:15:34.454Z,3.34
2023-03-06T18:18:01.169Z,3.41
2023-03-06T18:20:27.910Z,3.05
2023-03-06T18:22:55.009Z,3.10
2023-03-06T18:25:25.603Z,3.32
2023-03-06T18:27:52.258Z,3.40
2023-03-06T18:30:18.888Z,3.33
2023-03-06T18:32:45.741Z,3.42
2023-03-06T18:35:12.342Z,3.31
2023-03-06T18:37:38.921Z,3.44
2023-03-06T18:40:06.690Z,3.46
2023-03-06T18:42:34.645Z,3.47
2023-03-06T18:45:01.297Z,3.52
2023-03-06T18:47:27.977Z,3.53
2023-03-06T18:49:54.725Z,3.53
2023-03-06T18:52:21.340Z,3.59
2023-03-06T18:54:49.869Z,3.59
2023-03-06T18:57:16.599Z,3.57
2023-03-06T18:59:45.111Z,3.66
2023-03-06T19:02:12.599Z,3.62
2023-03-06T19:04:39.304Z,3.62
2023-03-06T19:07:06.392Z,3.65
2023-03-06T19:09:33.033Z,3.64
2023-03-06T19:12:00.611Z,3.69
2023-03-06T19:14:27.885Z,3.28
2023-03-06T19:16:55.912Z,3.65
2023-03-06T19:19:26.223Z,3.73
2023-03-06T19:21:53.415Z,3.72
2023-03-06T19:24:21.092Z,3.73
2023-03-06T19:26:47.694Z,3.76
2023-03-06T19:29:14.331Z,3.73
2023-03-06T19:31:41.639Z,3.78
2023-03-06T19:34:09.675Z,3.81
2023-03-06T19:36:38.720Z,3.07
2023-03-06T19:39:07.763Z,3.71
2023-03-06T19:41:34.689Z,3.78
2023-03-06T19:44:03.229Z,3.77
2023-03-06T19:46:29.990Z,3.76
2023-03-06T19:48:58.570Z,3.74
2023-03-06T19:51:27.186Z,3.77
2023-03-06T19:53:54.273Z,3.79
2023-03-06T19:56:22.851Z,3.79
2023-03-06T19:58:49.544Z,3.77
2023-03-06T20:01:18.494Z,3.79
2023-03-06T20:03:45.623Z,3.80
2023-03-06T20:06:13.738Z,3.80
2023-03-06T20:08:42.068Z,3.81
2023-03-06T20:11:16.183Z,3.82
2023-03-06T20:13:47.439Z,3.82
2023-03-06T20:16:14.521Z,3.81
2023-03-06T20:18:41.244Z,3.82
2023-03-06T20:21:07.991Z,3.81
2023-03-06T20:23:34.863Z,3.81
2023-03-06T20:26:04.217Z,3.85
2023-03-06T20:28:30.880Z,3.82
2023-03-06T20:30:58.259Z,3.84
2023-03-06T20:33:26.503Z,3.83
2023-03-06T20:35:54.011Z,3.87
2023-03-06T20:38:20.775Z,3.86
2023-03-06T20:40:47.459Z,3.86
2023-03-06T20:43:15.935Z,3.87
2023-03-06T20:45:42.512Z,3.87
2023-03-06T20:48:09.090Z,3.87
2023-03-06T20:50:35.625Z,3.85
2023-03-06T20:53:02.183Z,3.87
2023-03-06T20:55:28.746Z,3.86
2023-03-06T20:57:55.396Z,3.87
2023-03-06T21:00:23.353Z,3.87
2023-03-06T21:02:49.966Z,3.33
2023-03-06T21:05:16.750Z,3.77
2023-03-06T21:07:43.317Z,3.83
2023-03-06T21:10:10.771Z,3.86
2023-03-06T21:12:37.340Z,3.86
2023-03-06T21:15:04.694Z,3.87
2023-03-06T21:17:32.585Z,3.88
2023-03-06T21:19:59.190Z,3.89
2023-03-06T21:22:25.886Z,3.88
2023-03-06T21:24:52.707Z,3.89
2023-03-06T21:27:19.461Z,3.88
2023-03-06T21:29:46.436Z,3.88
2023-03-06T21:32:13.153Z,3.88
2023-03-06T21:34:41.124Z,3.87
2023-03-06T21:37:07.740Z,3.88
2023-03-06T21:39:34.803Z,3.88
2023-03-06T21:42:02.210Z,3.76
2023-03-06T21:44:28.805Z,3.84
2023-03-06T21:46:55.432Z,3.88
2023-03-06T21:49:25.971Z,3.89
2023-03-06T21:51:54.874Z,3.88
2023-03-06T21:54:21.807Z,3.88
2023-03-06T21:56:48.482Z,3.89
2023-03-06T21:59:15.188Z,3.89
2023-03-06T22:01:42.644Z,3.87
2023-03-06T22:04:09.349Z,3.88
2023-03-06T22:06:39.143Z,3.89
2023-03-06T22:09:07.149Z,3.87
2023-03-06T22:11:37.163Z,3.88
2023-03-06T22:14:04.254Z,3.87
2023-03-06T22:16:30.955Z,3.88
2023-03-06T22:18:57.733Z,3.89
2023-03-06T22:21:24.406Z,3.88
2023-03-06T22:23:51.468Z,3.87
2023-03-06T22:26:19.947Z,3.86
2023-03-06T22:28:46.636Z,3.86
2023-03-06T22:31:15.758Z,3.87
2023-03-06T22:33:42.363Z,3.87
2023-03-06T22:36:11.373Z,3.89
2023-03-06T22:38:39.826Z,3.88
2023-03-06T22:41:07.781Z,3.90
2023-03-06T22:43:36.663Z,3.87
2023-03-06T22:46:04.259Z,3.85
2023-03-06T22:48:31.150Z,3.81
2023-03-06T22:51:02.371Z,3.87
2023-03-06T22:53:28.948Z,3.85
2023-03-06T22:55:57.757Z,3.85
2023-03-06T22:58:24.349Z,3.86
2023-03-06T23:00:52.695Z,3.87
2023-03-06T23:03:19.506Z,3.84
2023-03-06T23:05:46.219Z,3.86
2023-03-06T23:08:12.804Z,3.86
2023-03-06T23:10:39.629Z,3.83
2023-03-06T23:13:06.665Z,3.81
2023-03-06T23:15:35.599Z,3.82
2023-03-06T23:18:04.008Z,3.85
2023-03-06T23:20:31.043Z,3.82
2023-03-06T23:22:57.620Z,3.80
2023-03-06T23:25:24.277Z,3.82
2023-03-06T23:27:51.337Z,3.82
2023-03-06T23:30:18.259Z,3.79
2023-03-06T23:32:45.991Z,3.80
2023-03-06T23:35:14.407Z,3.81
2023-03-06T23:37:41.006Z,3.79
2023-03-06T23:40:09.309Z,3.81
2023-03-06T23:42:35.872Z,3.80
2023-03-06T23:45:02.612Z,3.78
2023-03-06T23:47:31.859Z,3.78
2023-03-06T23:49:58.431Z,3.79
2023-03-06T23:52:26.694Z,3.80
2023-03-06T23:54:53.268Z,3.78
2023-03-06T23:57:20.045Z,3.80
2023-03-06T23:59:46.646Z,3.79
